createdAt,value
2023-01-13T00:00:08.829Z,99561.69
2023-01-13T00:02:35.397Z,99552.16
2023-01-13T00:05:04.594Z,99551.78
2023-01-13T00:07:32.552Z,99545.09
2023-01-13T00:09:59.053Z,99542.38
2023-01-13T00:12:25.561Z,99539.38
2023-01-13T00:14:52.105Z,99533.88
2023-01-13T00:17:18.725Z,99541.28
2023-01-13T00:19:45.197Z,99539.00
2023-01-13T00:22:11.706Z,99532.88
2023-01-13T00:24:39.547Z,99531.66
2023-01-13T00:27:06.108Z,99544.03
2023-01-13T00:29:32.722Z,99527.09
2023-01-13T00:31:59.221Z,99517.28
2023-01-13T00:34:25.725Z,99510.66
2023-01-13T00:36:52.243Z,99510.63
2023-01-13T00:39:18.812Z,99492.78
2023-01-13T00:41:46.675Z,99501.72
2023-01-13T00:44:13.191Z,99485.50
2023-01-13T00:46:39.765Z,99482.84
2023-01-13T00:49:06.277Z,99485.75
2023-01-13T00:51:34.947Z,99486.38
2023-01-13T00:54:01.510Z,99479.69
2023-01-13T00:56:39.594Z,99475.13
2023-01-13T00:59:10.573Z,99478.00
2023-01-13T01:01:37.412Z,99484.75
2023-01-13T01:04:04.223Z,99488.56
2023-01-13T01:06:30.747Z,99490.97
2023-01-13T01:08:57.521Z,99494.03
2023-01-13T01:11:25.869Z,99488.59
2023-01-13T01:13:54.294Z,99489.75
2023-01-13T01:16:24.112Z,99498.72
2023-01-13T01:18:52.435Z,99500.56
2023-01-13T01:21:19.837Z,99499.47
2023-01-13T01:23:46.368Z,99497.41
2023-01-13T01:26:14.819Z,99505.94
2023-01-13T01:28:41.820Z,99500.78
2023-01-13T01:31:14.164Z,99497.00
2023-01-13T01:33:42.619Z,99493.09
2023-01-13T01:36:11.253Z,99499.09
2023-01-13T01:38:37.864Z,99518.84
2023-01-13T01:41:04.668Z,99509.25
2023-01-13T01:43:50.139Z,99506.88
2023-01-13T01:46:16.685Z,99500.16
2023-01-13T01:48:44.556Z,99505.00
2023-01-13T01:51:13.172Z,99498.34
2023-01-13T01:53:40.417Z,99493.53
2023-01-13T01:56:10.592Z,99496.22
2023-01-13T01:58:42.954Z,99500.94
2023-01-13T02:01:10.108Z,99488.50
2023-01-13T02:03:39.184Z,99488.94
2023-01-13T02:06:08.427Z,99487.22
2023-01-13T02:08:36.924Z,99495.38
2023-01-13T02:11:03.493Z,99493.81
2023-01-13T02:13:30.065Z,99495.03
2023-01-13T02:16:08.425Z,99498.34
2023-01-13T02:18:45.138Z,99491.72
2023-01-13T02:21:44.610Z,99484.09
2023-01-13T02:24:40.562Z,99495.25
2023-01-13T02:27:36.203Z,99488.53
2023-01-13T02:30:17.076Z,99487.41
2023-01-13T02:32:59.226Z,99489.06
2023-01-13T02:35:33.007Z,99488.06
2023-01-13T02:38:00.452Z,99498.53
2023-01-13T02:40:33.147Z,99496.34
2023-01-13T02:43:06.116Z,99504.06
2023-01-13T02:45:37.778Z,99505.03
2023-01-13T02:48:08.824Z,99522.16
2023-01-13T02:50:40.066Z,99511.56
2023-01-13T02:53:12.806Z,99524.09
2023-01-13T02:55:44.451Z,99528.19
2023-01-13T02:58:14.683Z,99528.97
2023-01-13T03:00:45.742Z,99543.47
2023-01-13T03:03:12.141Z,99534.19
2023-01-13T03:05:41.972Z,99548.22
2023-01-13T03:08:21.141Z,99544.84
2023-01-13T03:11:03.608Z,99546.41
2023-01-13T03:13:45.647Z,99546.41
2023-01-13T03:16:20.771Z,99549.22
2023-01-13T03:18:55.709Z,99543.28
2023-01-13T03:21:28.371Z,99539.75
2023-01-13T03:24:02.828Z,99526.84
2023-01-13T03:26:35.053Z,99530.13
2023-01-13T03:29:08.750Z,99551.47
2023-01-13T03:31:40.129Z,99546.84
2023-01-13T03:34:13.176Z,99553.09
2023-01-13T03:36:41.978Z,99547.25
2023-01-13T03:39:12.149Z,99563.38
2023-01-13T03:41:44.252Z,99563.38
2023-01-13T03:44:15.647Z,99560.63
2023-01-13T03:46:49.237Z,99555.53
2023-01-13T03:49:20.169Z,99560.28
2023-01-13T03:51:51.467Z,99557.50
2023-01-13T03:54:21.480Z,99564.88
2023-01-13T03:56:54.515Z,99552.47
2023-01-13T03:59:26.155Z,99562.53
2023-01-13T04:02:01.418Z,99557.56
2023-01-13T04:04:32.448Z,99559.91
2023-01-13T04:07:09.851Z,99557.28
2023-01-13T04:09:45.800Z,99550.34
2023-01-13T04:12:17.814Z,99549.44
2023-01-13T04:14:45.151Z,99550.91
2023-01-13T04:17:13.319Z,99540.53
2023-01-13T04:19:39.708Z,99547.84
2023-01-13T04:22:06.064Z,99562.16
2023-01-13T04:24:32.416Z,99559.56
2023-01-13T04:26:58.848Z,99557.97
2023-01-13T04:29:25.201Z,99552.44
2023-01-13T04:31:51.521Z,99553.63
2023-01-13T04:34:19.467Z,99548.53
2023-01-13T04:36:45.850Z,99559.50
2023-01-13T04:39:12.462Z,99555.38
2023-01-13T04:41:38.833Z,99561.81
2023-01-13T04:44:05.384Z,99562.88
2023-01-13T04:46:31.748Z,99560.34
2023-01-13T04:48:58.160Z,99555.91
2023-01-13T04:51:25.810Z,99552.72
2023-01-13T04:53:52.187Z,99542.44
2023-01-13T04:56:18.552Z,99540.00
2023-01-13T04:58:44.889Z,99542.66
2023-01-13T05:01:11.282Z,99539.69
2023-01-13T05:03:37.744Z,99541.22
2023-01-13T05:06:04.253Z,99544.53
2023-01-13T05:08:31.920Z,99541.88
2023-01-13T05:10:59.766Z,99540.16
2023-01-13T05:13:26.119Z,99536.22
2023-01-13T05:15:52.478Z,99538.38
2023-01-13T05:18:19.324Z,99536.44
2023-01-13T05:20:45.724Z,99536.31
2023-01-13T05:23:12.362Z,99534.75
2023-01-13T05:25:44.127Z,99531.09
2023-01-13T05:28:11.203Z,99547.78
2023-01-13T05:30:40.713Z,99549.56
2023-01-13T05:33:09.245Z,99548.81
2023-01-13T05:35:38.123Z,99545.72
2023-01-13T05:38:04.452Z,99545.72
2023-01-13T05:40:31.127Z,99535.59
2023-01-13T05:43:04.083Z,99526.13
2023-01-13T05:45:31.090Z,99525.91
2023-01-13T05:47:57.996Z,99517.56
2023-01-13T05:50:24.769Z,99516.75
2023-01-13T05:52:51.169Z,99524.06
2023-01-13T05:55:17.674Z,99515.53
2023-01-13T05:57:44.024Z,99522.63
2023-01-13T06:00:13.088Z,99526.31
2023-01-13T06:02:39.468Z,99530.13
2023-01-13T06:05:06.243Z,99522.09
2023-01-13T06:07:32.602Z,99515.56
2023-01-13T06:09:58.966Z,99512.41
2023-01-13T06:12:25.347Z,99520.91
2023-01-13T06:14:51.725Z,99517.72
2023-01-13T06:17:19.397Z,99528.44
2023-01-13T06:19:45.857Z,99522.16
2023-01-13T06:22:16.162Z,99530.44
2023-01-13T06:24:43.165Z,99521.78
2023-01-13T06:27:09.734Z,99538.44
2023-01-13T06:29:36.093Z,99536.50
2023-01-13T06:32:05.646Z,99540.41
2023-01-13T06:34:34.860Z,99531.09
2023-01-13T06:37:03.793Z,99527.19
2023-01-13T06:39:31.384Z,99519.88
2023-01-13T06:41:58.467Z,99518.03
2023-01-13T06:44:25.097Z,99522.66
2023-01-13T06:46:51.741Z,99518.06
2023-01-13T06:49:21.808Z,99513.38
2023-01-13T06:51:49.590Z,99520.34
2023-01-13T06:54:16.017Z,99503.22
2023-01-13T06:56:42.423Z,99500.28
2023-01-13T06:59:08.970Z,99509.53
2023-01-13T07:01:35.485Z,99512.28
2023-01-13T07:04:01.965Z,99513.84
2023-01-13T07:06:28.533Z,99515.03
2023-01-13T07:08:56.209Z,99528.75
2023-01-13T07:11:25.321Z,99542.72
2023-01-13T07:13:51.744Z,99546.19
2023-01-13T07:16:18.144Z,99545.44
2023-01-13T07:18:44.526Z,99551.63
2023-01-13T07:21:12.275Z,99547.22
2023-01-13T07:23:40.172Z,99545.22
2023-01-13T07:26:09.384Z,99558.44
2023-01-13T07:28:36.537Z,99562.22
2023-01-13T07:31:03.588Z,99563.53
2023-01-13T07:33:29.935Z,99571.31
2023-01-13T07:35:57.868Z,99563.28
2023-01-13T07:38:24.286Z,99560.69
2023-01-13T07:40:50.681Z,99564.97
2023-01-13T07:43:21.097Z,99571.84
2023-01-13T07:45:47.456Z,99576.19
2023-01-13T07:48:13.974Z,99580.78
2023-01-13T07:50:42.697Z,99568.22
2023-01-13T07:53:10.292Z,99585.16
2023-01-13T07:55:41.697Z,99574.84
2023-01-13T07:58:08.353Z,99581.50
2023-01-13T08:00:36.319Z,99581.78
2023-01-13T08:03:04.712Z,99576.69
2023-01-13T08:05:31.148Z,99578.38
2023-01-13T08:07:57.761Z,99582.38
2023-01-13T08:10:24.154Z,99583.34
2023-01-13T08:12:53.065Z,99588.16
2023-01-13T08:15:23.338Z,99584.72
2023-01-13T08:17:51.146Z,99585.88
2023-01-13T08:20:17.776Z,99589.47
2023-01-13T08:22:44.129Z,99585.22
2023-01-13T08:25:10.504Z,99581.25
2023-01-13T08:27:36.948Z,99584.13
2023-01-13T08:30:04.315Z,99586.38
2023-01-13T08:32:30.954Z,99595.59
2023-01-13T08:34:58.663Z,99595.88
2023-01-13T08:37:25.022Z,99597.09
2023-01-13T08:39:51.412Z,99591.41
2023-01-13T08:42:17.793Z,99606.09
2023-01-13T08:44:48.337Z,99594.94
2023-01-13T08:47:14.692Z,99597.63
2023-01-13T08:49:41.125Z,99598.22
2023-01-13T08:52:09.129Z,99602.00
2023-01-13T08:54:37.863Z,99609.59
2023-01-13T08:57:04.431Z,99595.97
2023-01-13T08:59:31.133Z,99604.22
2023-01-13T09:01:57.646Z,99596.78
2023-01-13T09:04:26.673Z,99604.69
2023-01-13T09:06:53.817Z,99596.38
2023-01-13T09:09:22.413Z,99606.91
2023-01-13T09:11:50.744Z,99615.28
2023-01-13T09:14:18.882Z,99619.06
2023-01-13T09:16:45.265Z,99620.56
2023-01-13T09:19:11.599Z,99624.44
2023-01-13T09:21:37.967Z,99634.50
2023-01-13T09:24:04.693Z,99630.13
2023-01-13T09:26:32.451Z,99630.09
2023-01-13T09:28:58.842Z,99621.00
2023-01-13T09:31:25.332Z,99623.66
2023-01-13T09:33:51.739Z,99631.31
2023-01-13T09:36:18.773Z,99632.66
2023-01-13T09:38:45.202Z,99626.38
2023-01-13T09:41:19.783Z,99627.97
2023-01-13T09:43:53.971Z,99633.44
2023-01-13T09:46:23.732Z,99622.84
2023-01-13T09:48:50.170Z,99632.22
2023-01-13T09:51:22.251Z,99622.84
2023-01-13T09:53:54.529Z,99636.84
2023-01-13T09:56:22.278Z,99639.09
2023-01-13T09:58:50.212Z,99640.81
2023-01-13T10:01:23.791Z,99631.66
2023-01-13T10:03:50.351Z,99637.16
2023-01-13T10:06:21.352Z,99623.63
2023-01-13T10:08:48.949Z,99628.47
2023-01-13T10:11:17.657Z,99627.28
2023-01-13T10:13:44.065Z,99623.44
2023-01-13T10:16:27.035Z,99631.63
2023-01-13T10:19:04.679Z,99620.47
2023-01-13T10:22:00.235Z,99628.69
2023-01-13T10:24:35.616Z,99625.03
2023-01-13T10:27:04.439Z,99626.56
2023-01-13T10:29:31.593Z,99634.22
2023-01-13T10:32:00.302Z,99623.88
2023-01-13T10:34:28.105Z,99622.94
2023-01-13T10:36:59.847Z,99632.50
2023-01-13T10:39:26.601Z,99617.84
2023-01-13T10:42:01.393Z,99622.53
2023-01-13T10:44:27.773Z,99614.53
2023-01-13T10:46:55.925Z,99614.34
2023-01-13T10:49:30.039Z,99608.75
2023-01-13T10:51:56.553Z,99623.25
2023-01-13T10:54:24.671Z,99625.88
2023-01-13T10:57:15.117Z,99620.22
2023-01-13T10:59:41.999Z,99621.91
2023-01-13T11:02:25.976Z,99625.53
2023-01-13T11:05:08.926Z,99632.94
2023-01-13T11:07:38.548Z,99621.06
2023-01-13T11:10:19.481Z,99637.69
2023-01-13T11:12:52.204Z,99633.00
2023-01-13T11:15:22.849Z,99633.56
2023-01-13T11:17:53.060Z,99630.22
2023-01-13T11:20:24.897Z,99617.59
2023-01-13T11:22:54.218Z,99629.81
2023-01-13T11:25:24.825Z,99634.09
2023-01-13T11:27:57.620Z,99627.19
2023-01-13T11:30:36.114Z,99625.25
2023-01-13T11:33:17.166Z,99625.63
2023-01-13T11:35:48.577Z,99620.06
2023-01-13T11:38:26.127Z,99620.63
2023-01-13T11:40:52.530Z,99626.44
2023-01-13T11:43:26.317Z,99626.91
2023-01-13T11:45:55.708Z,99622.63
2023-01-13T11:48:24.974Z,99639.00
2023-01-13T11:50:59.948Z,99625.28
2023-01-13T11:53:43.767Z,99636.69
2023-01-13T11:56:26.358Z,99621.59
2023-01-13T11:59:12.259Z,99625.16
2023-01-13T12:01:55.678Z,99619.50
2023-01-13T12:04:27.886Z,99623.59
2023-01-13T12:07:10.369Z,99624.41
2023-01-13T12:09:48.488Z,99634.47
2023-01-13T12:12:21.903Z,99613.03
2023-01-13T12:15:12.203Z,99631.25
2023-01-13T12:17:51.702Z,99625.66
2023-01-13T12:20:30.148Z,99620.91
2023-01-13T12:23:01.418Z,99623.16
2023-01-13T12:25:33.265Z,99632.97
2023-01-13T12:28:04.536Z,99618.97
2023-01-13T12:30:39.110Z,99643.47
2023-01-13T12:33:24.081Z,99644.19
2023-01-13T12:35:59.111Z,99644.81
2023-01-13T12:38:35.952Z,99644.50
2023-01-13T12:41:12.820Z,99642.25
2023-01-13T12:43:45.613Z,99648.44
2023-01-13T12:46:48.716Z,99635.50
2023-01-13T12:49:23.914Z,99631.88
2023-01-13T12:52:15.434Z,99628.13
2023-01-13T12:55:11.780Z,99631.78
2023-01-13T12:57:38.153Z,99628.31
2023-01-13T13:00:16.505Z,99625.63
2023-01-13T13:03:03.497Z,99636.63
2023-01-13T13:05:43.294Z,99629.22
2023-01-13T13:08:16.429Z,99614.56
2023-01-13T13:10:57.388Z,99630.69
2023-01-13T13:13:44.051Z,99624.16
2023-01-13T13:16:36.993Z,99640.06
2023-01-13T13:19:40.492Z,99643.09
2023-01-13T13:22:16.669Z,99641.78
2023-01-13T13:25:03.764Z,99658.44
2023-01-13T13:27:40.452Z,99681.19
2023-01-13T13:30:14.410Z,99691.00
2023-01-13T13:33:03.086Z,99719.88
2023-01-13T13:35:49.469Z,99692.56
2023-01-13T13:38:25.501Z,99689.19
2023-01-13T13:40:52.422Z,99690.66
2023-01-13T13:43:20.435Z,99700.69
2023-01-13T13:45:51.350Z,99702.16
2023-01-13T13:48:24.399Z,99704.00
2023-01-13T13:50:54.901Z,99725.53
2023-01-13T13:53:23.587Z,99723.81
2023-01-13T13:55:55.716Z,99725.06
2023-01-13T13:58:23.758Z,99723.00
2023-01-13T14:00:50.932Z,99710.81
2023-01-13T14:03:24.117Z,99714.41
2023-01-13T14:05:56.347Z,99728.53
2023-01-13T14:08:23.537Z,99731.22
2023-01-13T14:10:50.394Z,99724.34
2023-01-13T14:13:20.907Z,99718.53
2023-01-13T14:15:54.885Z,99717.22
2023-01-13T14:18:21.753Z,99712.72
2023-01-13T14:20:59.618Z,99725.25
2023-01-13T14:23:27.936Z,99716.06
2023-01-13T14:25:55.024Z,99726.19
2023-01-13T14:28:26.316Z,99727.00
2023-01-13T14:30:55.477Z,99741.16
2023-01-13T14:33:26.842Z,99731.53
2023-01-13T14:36:16.441Z,99742.91
2023-01-13T14:38:45.064Z,99746.88
2023-01-13T14:41:18.816Z,99734.00
2023-01-13T14:43:45.863Z,99749.19
2023-01-13T14:46:13.932Z,99745.75
2023-01-13T14:48:42.249Z,99761.72
2023-01-13T14:51:11.016Z,99763.66
2023-01-13T14:53:39.631Z,99763.25
2023-01-13T14:56:36.271Z,99772.13
2023-01-13T14:59:33.657Z,99758.03
2023-01-13T15:02:02.286Z,99761.41
2023-01-13T15:04:33.198Z,99769.06
2023-01-13T15:07:01.053Z,99778.69
2023-01-13T15:09:30.931Z,99782.03
2023-01-13T15:11:57.370Z,99777.63
2023-01-13T15:14:29.188Z,99788.75
2023-01-13T15:16:56.027Z,99795.75
2023-01-13T15:19:23.706Z,99797.34
2023-01-13T15:21:50.085Z,99808.47
2023-01-13T15:24:16.482Z,99805.78
2023-01-13T15:26:42.829Z,99810.06
2023-01-13T15:29:13.145Z,99803.78
2023-01-13T15:31:39.524Z,99807.00
2023-01-13T15:34:06.114Z,99804.59
2023-01-13T15:36:34.287Z,99821.50
2023-01-13T15:39:01.389Z,99817.09
2023-01-13T15:41:27.882Z,99819.09
2023-01-13T15:43:54.231Z,99835.16
2023-01-13T15:46:20.886Z,99834.97
2023-01-13T15:48:54.694Z,99840.16
2023-01-13T15:51:21.479Z,99840.66
2023-01-13T15:53:49.328Z,99839.31
2023-01-13T15:56:20.205Z,99842.22
2023-01-13T15:58:46.584Z,99852.59
2023-01-13T16:01:13.031Z,99845.16
2023-01-13T16:03:39.473Z,99851.09
2023-01-13T16:06:14.536Z,99856.63
2023-01-13T16:08:41.054Z,99851.41
2023-01-13T16:11:10.285Z,99858.75
2023-01-13T16:13:36.703Z,99867.97
2023-01-13T16:16:03.992Z,99875.97
2023-01-13T16:18:30.360Z,99870.84
2023-01-13T16:20:56.770Z,99879.25
2023-01-13T16:23:23.147Z,99883.66
2023-01-13T16:25:50.177Z,99889.13
2023-01-13T16:28:21.575Z,99884.00
2023-01-13T16:30:48.123Z,99894.41
2023-01-13T16:33:14.513Z,99901.16
2023-01-13T16:36:08.904Z,99902.16
2023-01-13T16:38:27.304Z,99895.78
2023-01-13T16:40:56.744Z,99900.50
2023-01-13T16:43:24.421Z,99911.66
2023-01-13T16:45:50.818Z,99916.69
2023-01-13T16:48:19.625Z,99918.53
2023-01-13T16:50:46.727Z,99914.53
2023-01-13T16:53:16.001Z,99913.72
2023-01-13T16:55:43.177Z,99911.25
2023-01-13T16:58:17.397Z,99924.06
2023-01-13T17:00:45.666Z,99922.72
2023-01-13T17:03:12.423Z,99925.81
2023-01-13T17:05:40.086Z,99928.16
2023-01-13T17:08:06.598Z,99936.44
2023-01-13T17:10:32.951Z,99935.44
2023-01-13T17:13:04.586Z,99937.09
2023-01-13T17:15:39.972Z,99945.53
2023-01-13T17:18:07.674Z,99953.03
2023-01-13T17:20:37.170Z,99945.56
2023-01-13T17:23:03.999Z,99965.53
2023-01-13T17:25:30.372Z,99982.34
2023-01-13T17:27:59.745Z,99974.13
2023-01-13T17:30:26.552Z,99989.38
2023-01-13T17:32:52.945Z,99995.84
2023-01-13T17:35:20.745Z,99996.88
2023-01-13T17:37:47.130Z,99997.78
2023-01-13T17:40:13.514Z,100013.66
2023-01-13T17:42:39.897Z,100016.13
2023-01-13T17:45:07.373Z,100006.53
2023-01-13T17:47:33.725Z,100014.91
2023-01-13T17:50:00.076Z,100019.63
2023-01-13T17:52:29.578Z,100015.59
2023-01-13T17:54:55.966Z,100024.13
2023-01-13T17:57:22.319Z,100007.13
2023-01-13T17:59:48.955Z,100021.94
2023-01-13T18:02:15.416Z,100010.44
2023-01-13T18:04:41.901Z,100016.56
2023-01-13T18:07:08.339Z,100015.41
2023-01-13T18:09:36.039Z,100018.16
2023-01-13T18:12:02.422Z,100018.94
2023-01-13T18:14:28.832Z,100034.88
2023-01-13T18:16:55.220Z,100039.09
2023-01-13T18:19:21.682Z,100032.66
2023-01-13T18:21:48.162Z,100050.53
2023-01-13T18:24:16.366Z,100038.06
2023-01-13T18:26:44.041Z,100041.25
2023-01-13T18:29:10.815Z,100050.19
2023-01-13T18:31:37.237Z,100049.34
2023-01-13T18:34:03.619Z,100060.50
2023-01-13T18:36:29.995Z,100059.06
2023-01-13T18:38:58.147Z,100067.41
2023-01-13T18:41:24.584Z,100054.13
2023-01-13T18:43:52.297Z,100052.00
2023-01-13T18:46:18.706Z,100066.06
2023-01-13T18:48:45.130Z,100054.66
2023-01-13T18:51:11.522Z,100066.25
2023-01-13T18:53:37.900Z,100068.22
2023-01-13T18:56:09.224Z,100077.28
2023-01-13T18:58:35.682Z,100086.19
2023-01-13T19:01:03.990Z,100075.94
2023-01-13T19:03:30.766Z,100092.78
2023-01-13T19:06:01.525Z,100090.03
2023-01-13T19:08:27.946Z,100086.53
2023-01-13T19:10:54.302Z,100088.41
2023-01-13T19:13:20.677Z,100101.03
2023-01-13T19:15:47.084Z,100101.91
2023-01-13T19:18:15.212Z,100109.31
2023-01-13T19:20:41.584Z,100111.13
2023-01-13T19:23:07.987Z,100105.72
2023-01-13T19:25:34.381Z,100118.94
2023-01-13T19:28:00.747Z,100124.47
2023-01-13T19:30:27.453Z,100115.47
2023-01-13T19:32:53.843Z,100123.28
2023-01-13T19:35:21.738Z,100131.50
2023-01-13T19:37:48.163Z,100132.53
2023-01-13T19:40:14.832Z,100132.97
2023-01-13T19:42:42.561Z,100135.06
2023-01-13T19:45:13.103Z,100128.81
2023-01-13T19:47:39.472Z,100145.38
2023-01-13T19:50:06.482Z,100150.19
2023-01-13T19:52:34.489Z,100157.91
2023-01-13T19:55:00.891Z,100159.66
2023-01-13T19:57:27.449Z,100162.28
2023-01-13T19:59:53.827Z,100166.09
2023-01-13T20:02:22.301Z,100156.72
2023-01-13T20:04:48.671Z,100170.44
2023-01-13T20:07:15.034Z,100169.47
2023-01-13T20:09:43.893Z,100165.34
2023-01-13T20:12:11.140Z,100165.25
2023-01-13T20:14:37.539Z,100178.81
2023-01-13T20:17:04.031Z,100173.03
2023-01-13T20:19:30.448Z,100176.69
2023-01-13T20:21:56.849Z,100174.78
2023-01-13T20:24:23.210Z,100186.00
2023-01-13T20:26:50.928Z,100184.84
2023-01-13T20:29:17.293Z,100182.72
2023-01-13T20:31:43.725Z,100191.94
2023-01-13T20:34:10.408Z,100183.28
2023-01-13T20:36:36.804Z,100195.16
2023-01-13T20:39:05.714Z,100181.53
2023-01-13T20:41:32.360Z,100192.09
2023-01-13T20:44:00.033Z,100201.78
2023-01-13T20:46:26.454Z,100208.53
2023-01-13T20:48:52.829Z,100215.81
2023-01-13T20:51:19.169Z,100215.72
2023-01-13T20:53:45.542Z,100228.16
2023-01-13T20:56:13.475Z,100219.59
2023-01-13T20:58:40.810Z,100225.91
2023-01-13T21:01:08.552Z,100234.38
2023-01-13T21:03:35.098Z,100234.66
2023-01-13T21:06:01.502Z,100260.38
2023-01-13T21:08:27.883Z,100257.25
2023-01-13T21:11:00.128Z,100271.91
2023-01-13T21:13:26.827Z,100277.03
2023-01-13T21:15:53.191Z,100264.72
2023-01-13T21:18:21.268Z,100284.88
2023-01-13T21:20:47.647Z,100281.13
2023-01-13T21:23:14.135Z,100285.22
2023-01-13T21:25:40.710Z,100286.63
2023-01-13T21:28:07.157Z,100285.63
2023-01-13T21:30:34.397Z,100287.03
2023-01-13T21:33:00.834Z,100292.00
2023-01-13T21:35:28.595Z,100291.19
2023-01-13T21:37:54.966Z,100279.88
2023-01-13T21:40:24.746Z,100287.38
2023-01-13T21:42:51.095Z,100298.97
2023-01-13T21:45:18.377Z,100296.75
2023-01-13T21:47:45.025Z,100293.63
2023-01-13T21:50:12.941Z,100284.91
2023-01-13T21:52:40.614Z,100297.53
2023-01-13T21:55:07.618Z,100304.78
2023-01-13T21:57:33.986Z,100308.50
2023-01-13T22:00:00.357Z,100310.66
2023-01-13T22:02:26.905Z,100310.34
2023-01-13T22:04:53.299Z,100321.31
2023-01-13T22:07:19.655Z,100324.03
2023-01-13T22:09:47.359Z,100325.13
2023-01-13T22:12:14.851Z,100332.47
2023-01-13T22:14:41.221Z,100324.94
2023-01-13T22:17:07.635Z,100330.94
2023-01-13T22:19:33.991Z,100334.59
2023-01-13T22:22:00.339Z,100338.28
2023-01-13T22:24:26.769Z,100349.66
2023-01-13T22:26:54.457Z,100348.34
2023-01-13T22:29:20.864Z,100358.91
2023-01-13T22:31:47.350Z,100366.13
2023-01-13T22:34:13.713Z,100364.91
2023-01-13T22:36:40.057Z,100370.75
2023-01-13T22:39:06.492Z,100371.22
2023-01-13T22:41:32.844Z,100385.47
2023-01-13T22:44:00.571Z,100379.13
2023-01-13T22:46:27.007Z,100384.59
2023-01-13T22:48:53.423Z,100376.41
2023-01-13T22:51:19.820Z,100388.22
2023-01-13T22:53:46.201Z,100396.81
2023-01-13T22:56:16.769Z,100393.03
2023-01-13T22:58:43.968Z,100399.22
2023-01-13T23:01:13.498Z,100396.91
2023-01-13T23:03:40.592Z,100398.56
2023-01-13T23:06:07.030Z,100400.50
2023-01-13T23:08:34.305Z,100407.47
2023-01-13T23:11:01.848Z,100406.81
2023-01-13T23:13:28.260Z,100415.91
2023-01-13T23:15:54.654Z,100416.94
2023-01-13T23:18:24.825Z,100412.94
2023-01-13T23:20:51.183Z,100421.38
2023-01-13T23:23:17.558Z,100412.38
2023-01-13T23:25:48.928Z,100420.00
2023-01-13T23:28:15.297Z,100423.66
2023-01-13T23:30:41.778Z,100431.22
2023-01-13T23:33:08.140Z,100422.50
2023-01-13T23:35:35.798Z,100423.69
2023-01-13T23:38:02.237Z,100426.84
2023-01-13T23:40:28.613Z,100426.63
2023-01-13T23:42:55.024Z,100422.09
2023-01-13T23:45:21.794Z,100433.16
2023-01-13T23:47:48.175Z,100428.53
2023-01-13T23:50:14.621Z,100418.56
2023-01-13T23:52:42.556Z,100435.41
2023-01-13T23:55:09.388Z,100427.47
2023-01-13T23:57:35.721Z,100439.66
